Daio — JG5587 — position and weather

sailwx.info

Track history (hours):
 
Tides and Currents Weather Stations Pressure Air Temp Water Temp Dewpoint Dewpoint Depression Visibility Wind Speed Wind Dir Waves Ship Positions

Daio

Last reported at 2016-Feb-06 18:34 UTC. Time now 2016-Feb-06 18:38 UTC.
Position N 35°36' E 140°07'.

Length 36 m; draft 3.4 m.

Type: Tug. MMSI: 431003092.

Date/timePositionNaut miles runAvg speedWind from/ knotsBaromVisibWave heightAir tempDewpointWater temp
2016-Feb-06 18:34N 35°36' E 140°07'0 0.0
2016-Feb-06 17:33N 35°36' E 140°07'0 0.0
2016-Feb-06 16:34N 35°36' E 140°07'0 0.0
2016-Feb-06 15:33N 35°36' E 140°07'0 0.0
2016-Feb-06 14:33N 35°36' E 140°07'0 0.0
2016-Feb-06 13:34N 35°36' E 140°07'0 0.0
2016-Feb-06 12:33N 35°36' E 140°07'0 0.0
2016-Feb-06 11:34N 35°36' E 140°07'0 0.0
2016-Feb-06 10:34N 35°36' E 140°07'0 0.0
2016-Feb-06 09:33N 35°36' E 140°07'0 0.0
2016-Feb-06 08:33N 35°36' E 140°07'0 0.5
2016-Feb-06 07:34N 35°35' E 140°07'7 6.8
2016-Feb-06 06:33N 35°30' E 140°02'2 1.9
2016-Feb-06 05:33N 35°30' E 139°59'0 0.0
2016-Feb-06 04:33N 35°30' E 139°59'2 1.9
2016-Feb-06 03:34N 35°30' E 140°02'5 5.3
2016-Feb-06 02:33N 35°35' E 140°04'2 2.3
2016-Feb-06 01:33N 35°36' E 140°07'0 0.0
2016-Feb-06 00:33N 35°36' E 140°07'1 0.5
2016-Feb-05 23:33N 35°35' E 140°06'2 2.0
2016-Feb-05 22:33N 35°35' E 140°04'3 3.0
2016-Feb-05 21:32N 35°33' E 140°01'5 5.3
2016-Feb-05 20:33N 35°36' E 140°07'0 0.0
2016-Feb-05 19:33N 35°36' E 140°07'0 0.0
2016-Feb-05 18:34N 35°36' E 140°07'0 0.0
2016-Feb-05 17:34N 35°36' E 140°07'0 0.0
2016-Feb-05 16:33N 35°36' E 140°07'0 0.0
2016-Feb-05 15:34N 35°36' E 140°07'0 0.0
2016-Feb-05 14:33N 35°36' E 140°07'0 0.0
2016-Feb-05 13:34N 35°36' E 140°07'0 0.0
2016-Feb-05 12:33N 35°36' E 140°07'0 0.0
2016-Feb-05 11:33N 35°36' E 140°07'0 0.0
2016-Feb-05 10:34N 35°36' E 140°07'0 0.0
2016-Feb-05 09:34N 35°36' E 140°07'2 2.4
2016-Feb-05 08:34N 35°35' E 140°04'8 7.8
2016-Feb-05 07:34N 35°31' E 139°56'0 0.0
2016-Feb-05 06:34N 35°31' E 139°56'2 2.1
2016-Feb-05 05:33N 35°30' E 139°54'1 0.7
2016-Feb-05 04:34N 35°29' E 139°54'3 2.6
2016-Feb-05 03:34N 35°31' E 139°56'1010.1
2016-Feb-05 02:33N 35°36' E 140°07'0 0.0
2016-Feb-05 01:33N 35°36' E 140°07'0 0.0
2016-Feb-05 00:34N 35°36' E 140°07'0 0.0
2016-Feb-04 23:34N 35°36' E 140°07'1 1.5
2016-Feb-04 22:34N 35°36' E 140°05'6 5.7
2016-Feb-04 21:34N 35°32' E 139°59'7 7.0
2016-Feb-04 20:34N 35°36' E 140°07'0 0.0
2016-Feb-04 19:33N 35°36' E 140°07'0 0.0
2016-Feb-04 18:33N 35°36' E 140°07'0 0.0
2016-Feb-04 17:33N 35°36' E 140°07'0 0.0
2016-Feb-04 16:33N 35°36' E 140°07'0 0.0
2016-Feb-04 15:33N 35°36' E 140°07'0 0.0
2016-Feb-04 14:33N 35°36' E 140°07'0 0.0
2016-Feb-04 13:33N 35°36' E 140°07'0 0.0
2016-Feb-04 12:33N 35°36' E 140°07'0 0.0
2016-Feb-04 11:33N 35°36' E 140°07'0 0.0
2016-Feb-04 10:33N 35°36' E 140°07'0 0.0
2016-Feb-04 09:33N 35°36' E 140°07'0 0.0
2016-Feb-04 08:33N 35°36' E 140°07'0 0.0
2016-Feb-04 07:33N 35°36' E 140°07'0 0.0
2016-Feb-04 06:33N 35°36' E 140°07'0 0.0
2016-Feb-04 05:33N 35°36' E 140°07'0 0.0
2016-Feb-04 04:33N 35°36' E 140°07'0 0.0
2016-Feb-04 03:33N 35°36' E 140°07'1 1.0
2016-Feb-04 02:33N 35°35' E 140°06'1 0.8
2016-Feb-04 01:33N 35°36' E 140°05'2 2.1
2016-Feb-04 00:33N 35°35' E 140°03'6 5.8
2016-Feb-03 23:33N 35°34' E 139°56'0 0.4
2016-Feb-03 22:33N 35°33' E 139°56'6 6.4
2016-Feb-03 21:33N 35°32' E 140°03'5 4.8
2016-Feb-03 20:34N 35°36' E 140°07'0 0.0
2016-Feb-03 19:34N 35°36' E 140°07'0 0.0
2016-Feb-03 18:33N 35°36' E 140°07'0 0.0
2016-Feb-03 17:34N 35°36' E 140°07'0 0.0
2016-Feb-03 16:33N 35°36' E 140°07'0 0.0
2016-Feb-03 15:33N 35°36' E 140°07'0 0.0
2016-Feb-03 14:33N 35°36' E 140°07'0 0.0
2016-Feb-03 13:33N 35°36' E 140°07'0 0.0
2016-Feb-03 12:33N 35°36' E 140°07'0 0.0
2016-Feb-03 11:33N 35°36' E 140°07'0 0.0
2016-Feb-03 10:33N 35°36' E 140°07'0 0.0
2016-Feb-03 09:33N 35°36' E 140°07'0 0.0
2016-Feb-03 08:33N 35°36' E 140°07'0 0.0
2016-Feb-03 07:33N 35°36' E 140°07'0 0.0
2016-Feb-03 06:34N 35°36' E 140°07'8 2.6
2016-Feb-03 03:33N 35°32' E 139°58'2 2.3
2016-Feb-03 02:34N 35°31' E 139°56'1 0.9
2016-Feb-03 01:33N 35°30' E 139°55'0 0.2
2016-Feb-03 00:34N 35°30' E 139°55'1111.0
2016-Feb-02 23:34N 35°36' E 140°07'0 0.2
2016-Feb-02 22:33N 35°36' E 140°07'0 0.4
2016-Feb-02 21:33N 35°35' E 140°07'1 1.4
2016-Feb-02 20:33N 35°36' E 140°05'1 1.4
2016-Feb-02 19:33N 35°36' E 140°07'0 0.0
2016-Feb-02 18:33N 35°36' E 140°07'0 0.0
2016-Feb-02 17:33N 35°36' E 140°07'0 0.0
2016-Feb-02 16:33N 35°36' E 140°07'0 0.0
2016-Feb-02 15:33N 35°36' E 140°07'0 0.0
2016-Feb-02 14:33N 35°36' E 140°07'0 0.0
2016-Feb-02 13:33N 35°36' E 140°07'0 0.0
2016-Feb-02 12:33N 35°36' E 140°07'0 0.0
2016-Feb-02 11:33N 35°36' E 140°07'0 0.0
2016-Feb-02 10:33N 35°36' E 140°07'0 0.0
2016-Feb-02 09:33N 35°36' E 140°07'0 0.0
2016-Feb-02 08:33N 35°36' E 140°07'0 0.0
2016-Feb-02 07:33N 35°36' E 140°07'0 0.0
2016-Feb-02 06:33N 35°36' E 140°07'0 0.0
2016-Feb-02 05:33N 35°36' E 140°07'0 0.0
2016-Feb-02 04:33N 35°36' E 140°07'0 0.0
2016-Feb-02 03:33N 35°36' E 140°07'0 0.0
2016-Feb-02 02:33N 35°36' E 140°07'0 0.0
2016-Feb-02 01:33N 35°36' E 140°07'0 0.0
2016-Feb-02 00:33N 35°36' E 140°07'0 0.0
2016-Feb-01 23:34N 35°36' E 140°07'1 1.2
2016-Feb-01 22:33N 35°36' E 140°05'6 6.2
2016-Feb-01 21:33N 35°33' E 139°59'2 2.3
2016-Feb-01 20:33N 35°34' E 140°01'5 4.9
2016-Feb-01 19:33N 35°36' E 140°07'0 0.0
2016-Feb-01 18:33N 35°36' E 140°07'0 0.0
2016-Feb-01 17:33N 35°36' E 140°07'0 0.0
2016-Feb-01 16:33N 35°36' E 140°07'0 0.0
2016-Feb-01 15:33N 35°36' E 140°07'0 0.0
2016-Feb-01 14:33N 35°36' E 140°07'0 0.0
2016-Feb-01 13:33N 35°36' E 140°07'0 0.0
2016-Feb-01 12:33N 35°36' E 140°07'0 0.0
2016-Feb-01 11:33N 35°36' E 140°07'0 0.0
2016-Feb-01 10:33N 35°36' E 140°07'0 0.0
2016-Feb-01 09:33N 35°36' E 140°07'0 0.0
2016-Feb-01 08:33N 35°36' E 140°07'4 3.6
2016-Feb-01 07:33N 35°34' E 140°03'3 2.7
2016-Feb-01 06:33N 35°32' E 140°05'4 3.6
2016-Feb-01 05:33N 35°36' E 140°07'0 0.0
2016-Feb-01 04:33N 35°36' E 140°07'0 0.0
2016-Feb-01 03:33N 35°36' E 140°07'0 0.0
2016-Feb-01 02:33N 35°36' E 140°07'0 0.0
2016-Feb-01 01:33N 35°36' E 140°07'0 0.0
2016-Feb-01 00:33N 35°36' E 140°07'1010.1
2016-Jan-31 23:33N 35°29' E 139°58'1 1.0
2016-Jan-31 22:33N 35°28' E 139°58'4 4.3
2016-Jan-31 21:33N 35°32' E 139°58'8 7.9
2016-Jan-31 20:33N 35°36' E 140°07'0 0.0
2016-Jan-31 19:34N 35°36' E 140°07'0 0.0
2016-Jan-31 18:33N 35°36' E 140°07'0 0.0
2016-Jan-31 17:33N 35°36' E 140°07'0 0.0
2016-Jan-31 16:33N 35°36' E 140°07'0 0.0
2016-Jan-31 15:33N 35°36' E 140°07'0 0.0
2016-Jan-31 14:34N 35°36' E 140°07'0 0.0
2016-Jan-31 13:33N 35°36' E 140°07'0 0.0
2016-Jan-31 12:33N 35°36' E 140°07'0 0.0
2016-Jan-31 11:33N 35°36' E 140°07'0 0.0
2016-Jan-31 10:33N 35°36' E 140°07'0 0.0
2016-Jan-31 09:33N 35°36' E 140°07'0 0.0
2016-Jan-31 08:34N 35°36' E 140°07'0 0.0
2016-Jan-31 07:34N 35°36' E 140°07'0 0.0
2016-Jan-31 06:33N 35°36' E 140°07'0 0.0
2016-Jan-31 05:33N 35°36' E 140°07'0 0.0
2016-Jan-31 04:33N 35°36' E 140°07'2 1.7
2016-Jan-31 03:33N 35°36' E 140°05'0 0.1
2016-Jan-31 02:33N 35°36' E 140°05'2 1.9
2016-Jan-31 01:33N 35°35' E 140°03'0 0.0
2016-Jan-31 00:33N 35°35' E 140°03'0 0.0
2016-Jan-30 23:33N 35°35' E 140°03'2 2.4
2016-Jan-30 22:33N 35°36' E 140°06'3 2.6
2016-Jan-30 21:33N 35°35' E 140°03'0 0.0
2016-Jan-30 20:33N 35°35' E 140°03'4 3.5
2016-Jan-30 19:33N 35°36' E 140°07'0 0.0
2016-Jan-30 18:33N 35°36' E 140°07'0 0.0
2016-Jan-30 17:33N 35°36' E 140°07'0 0.0
2016-Jan-30 16:33N 35°36' E 140°07'0 0.0
2016-Jan-30 15:33N 35°36' E 140°07'0 0.0
2016-Jan-30 14:33N 35°36' E 140°07'0 0.0
2016-Jan-30 13:33N 35°36' E 140°07'0 0.0
2016-Jan-30 12:33N 35°36' E 140°07'0 0.0
2016-Jan-30 11:33N 35°36' E 140°07'0 0.0
2016-Jan-30 10:33N 35°36' E 140°07'0 0.0
2016-Jan-30 09:33N 35°36' E 140°07'0 0.0
2016-Jan-30 08:33N 35°36' E 140°07'0 0.0
2016-Jan-30 07:33N 35°36' E 140°07'0 0.0
2016-Jan-30 06:33N 35°36' E 140°07'1010.3
2016-Jan-30 05:33N 35°29' E 139°58'0 0.4
2016-Jan-30 04:33N 35°28' E 139°58'10 9.8
2016-Jan-30 03:33N 35°35' E 140°06'1 0.6
2016-Jan-30 02:33N 35°36' E 140°07'0 0.0
2016-Jan-30 01:33N 35°36' E 140°07'0 0.0
2016-Jan-30 00:33N 35°36' E 140°07'0 0.0
2016-Jan-29 23:33N 35°36' E 140°07'0 0.0
2016-Jan-29 22:33N 35°36' E 140°07'0 0.0
2016-Jan-29 21:33N 35°36' E 140°07'0 0.0
2016-Jan-29 20:33N 35°36' E 140°07'0 0.0
2016-Jan-29 19:33N 35°36' E 140°07'0 0.0
2016-Jan-29 18:33N 35°36' E 140°07'0 0.0
2016-Jan-29 17:33N 35°36' E 140°07'0 0.0
2016-Jan-29 16:33N 35°36' E 140°07'0 0.0
2016-Jan-29 15:33N 35°36' E 140°07'0 0.0
2016-Jan-29 14:33N 35°36' E 140°07'0 0.0
2016-Jan-29 13:33N 35°36' E 140°07'0 0.0
2016-Jan-29 12:33N 35°36' E 140°07'0 0.0
2016-Jan-29 11:33N 35°36' E 140°07'0 0.0
2016-Jan-29 10:33N 35°36' E 140°07'0 0.0
2016-Jan-29 09:33N 35°36' E 140°07'0 0.0
2016-Jan-29 08:33N 35°36' E 140°07'0 0.0
2016-Jan-29 07:33N 35°36' E 140°07'0 0.0
2016-Jan-29 06:33N 35°36' E 140°07'0 0.0
2016-Jan-29 05:33N 35°36' E 140°07'4 3.7
2016-Jan-29 04:33N 35°34' E 140°03'7 6.8
2016-Jan-29 03:33N 35°28' E 139°58'1 0.9
2016-Jan-29 02:33N 35°29' E 139°57'0 0.0
2016-Jan-29 01:33N 35°29' E 139°57'0 0.0
2016-Jan-29 00:33N 35°29' E 139°57'1 1.1
2016-Jan-28 23:33N 35°28' E 139°58'8 8.2
2016-Jan-28 22:33N 35°35' E 140°04'3 2.8
2016-Jan-28 21:33N 35°36' E 140°07'0 0.0
2016-Jan-28 20:33N 35°36' E 140°07'0 0.0
2016-Jan-28 19:33N 35°36' E 140°07'0 0.0
2016-Jan-28 18:33N 35°36' E 140°07'0 0.0
2016-Jan-28 17:33N 35°36' E 140°07'0 0.0
2016-Jan-28 16:33N 35°36' E 140°07'0 0.0
2016-Jan-28 15:33N 35°36' E 140°07'0 0.0
2016-Jan-28 14:33N 35°36' E 140°07'0 0.0
2016-Jan-28 13:33N 35°36' E 140°07'0 0.0
2016-Jan-28 12:33N 35°36' E 140°07'0 0.0
2016-Jan-28 11:33N 35°36' E 140°07'0 0.0
2016-Jan-28 10:33N 35°36' E 140°07'0 0.0
2016-Jan-28 09:33N 35°36' E 140°07'0 0.0
2016-Jan-28 08:33N 35°36' E 140°07'0 0.0
2016-Jan-28 07:33N 35°36' E 140°07'0 0.0
2016-Jan-28 06:33N 35°36' E 140°07'0 0.0
2016-Jan-28 05:33N 35°36' E 140°07'0 0.0
2016-Jan-28 04:33N 35°36' E 140°07'0 0.0
2016-Jan-28 03:33N 35°36' E 140°07'0 0.0
2016-Jan-28 02:33N 35°36' E 140°07'3 3.5
2016-Jan-28 01:34N 35°33' E 140°05'1 1.3
2016-Jan-28 00:33N 35°32' E 140°03'1 1.2
2016-Jan-27 23:34N 35°32' E 140°02'5 4.7
2016-Jan-27 22:33N 35°36' E 140°05'1 1.4
2016-Jan-27 21:33N 35°35' E 140°04'0 0.0
2016-Jan-27 20:33N 35°35' E 140°04'2 2.3
2016-Jan-27 19:33N 35°36' E 140°07'  
Track history (hours):
 
Tides and Currents Weather Stations Pressure Air Temp Water Temp Dewpoint Dewpoint Depression Visibility Wind Speed Wind Dir Waves Ship Positions

Daio

Last reported at 2016-Feb-06 18:34 UTC. Time now 2016-Feb-06 18:38 UTC.
Position N 35°36' E 140°07'.

Length 36 m; draft 3.4 m.

Type: Tug. MMSI: 431003092.

Date/timePositionNaut miles runAvg speedWind from/ knotsBaromVisibWave heightAir tempDewpointWater temp
2016-Feb-06 18:34N 35°36' E 140°07'0 0.0
2016-Feb-06 17:33N 35°36' E 140°07'0 0.0
2016-Feb-06 16:34N 35°36' E 140°07'0 0.0
2016-Feb-06 15:33N 35°36' E 140°07'0 0.0
2016-Feb-06 14:33N 35°36' E 140°07'0 0.0
2016-Feb-06 13:34N 35°36' E 140°07'0 0.0
2016-Feb-06 12:33N 35°36' E 140°07'0 0.0
2016-Feb-06 11:34N 35°36' E 140°07'0 0.0
2016-Feb-06 10:34N 35°36' E 140°07'0 0.0
2016-Feb-06 09:33N 35°36' E 140°07'0 0.0
2016-Feb-06 08:33N 35°36' E 140°07'0 0.5
2016-Feb-06 07:34N 35°35' E 140°07'7 6.8
2016-Feb-06 06:33N 35°30' E 140°02'2 1.9
2016-Feb-06 05:33N 35°30' E 139°59'0 0.0
2016-Feb-06 04:33N 35°30' E 139°59'2 1.9
2016-Feb-06 03:34N 35°30' E 140°02'5 5.3
2016-Feb-06 02:33N 35°35' E 140°04'2 2.3
2016-Feb-06 01:33N 35°36' E 140°07'0 0.0
2016-Feb-06 00:33N 35°36' E 140°07'1 0.5
2016-Feb-05 23:33N 35°35' E 140°06'2 2.0
2016-Feb-05 22:33N 35°35' E 140°04'3 3.0
2016-Feb-05 21:32N 35°33' E 140°01'5 5.3
2016-Feb-05 20:33N 35°36' E 140°07'0 0.0
2016-Feb-05 19:33N 35°36' E 140°07'0 0.0
2016-Feb-05 18:34N 35°36' E 140°07'0 0.0
2016-Feb-05 17:34N 35°36' E 140°07'0 0.0
2016-Feb-05 16:33N 35°36' E 140°07'0 0.0
2016-Feb-05 15:34N 35°36' E 140°07'0 0.0
2016-Feb-05 14:33N 35°36' E 140°07'0 0.0
2016-Feb-05 13:34N 35°36' E 140°07'0 0.0
2016-Feb-05 12:33N 35°36' E 140°07'0 0.0
2016-Feb-05 11:33N 35°36' E 140°07'0 0.0
2016-Feb-05 10:34N 35°36' E 140°07'0 0.0
2016-Feb-05 09:34N 35°36' E 140°07'2 2.4
2016-Feb-05 08:34N 35°35' E 140°04'8 7.8
2016-Feb-05 07:34N 35°31' E 139°56'0 0.0
2016-Feb-05 06:34N 35°31' E 139°56'2 2.1
2016-Feb-05 05:33N 35°30' E 139°54'1 0.7
2016-Feb-05 04:34N 35°29' E 139°54'3 2.6
2016-Feb-05 03:34N 35°31' E 139°56'1010.1
2016-Feb-05 02:33N 35°36' E 140°07'0 0.0
2016-Feb-05 01:33N 35°36' E 140°07'0 0.0
2016-Feb-05 00:34N 35°36' E 140°07'0 0.0
2016-Feb-04 23:34N 35°36' E 140°07'1 1.5
2016-Feb-04 22:34N 35°36' E 140°05'6 5.7
2016-Feb-04 21:34N 35°32' E 139°59'7 7.0
2016-Feb-04 20:34N 35°36' E 140°07'0 0.0
2016-Feb-04 19:33N 35°36' E 140°07'0 0.0
2016-Feb-04 18:33N 35°36' E 140°07'0 0.0
2016-Feb-04 17:33N 35°36' E 140°07'0 0.0
2016-Feb-04 16:33N 35°36' E 140°07'0 0.0
2016-Feb-04 15:33N 35°36' E 140°07'0 0.0
2016-Feb-04 14:33N 35°36' E 140°07'0 0.0
2016-Feb-04 13:33N 35°36' E 140°07'0 0.0
2016-Feb-04 12:33N 35°36' E 140°07'0 0.0
2016-Feb-04 11:33N 35°36' E 140°07'0 0.0
2016-Feb-04 10:33N 35°36' E 140°07'0 0.0
2016-Feb-04 09:33N 35°36' E 140°07'0 0.0
2016-Feb-04 08:33N 35°36' E 140°07'0 0.0
2016-Feb-04 07:33N 35°36' E 140°07'0 0.0
2016-Feb-04 06:33N 35°36' E 140°07'0 0.0
2016-Feb-04 05:33N 35°36' E 140°07'0 0.0
2016-Feb-04 04:33N 35°36' E 140°07'0 0.0
2016-Feb-04 03:33N 35°36' E 140°07'1 1.0
2016-Feb-04 02:33N 35°35' E 140°06'1 0.8
2016-Feb-04 01:33N 35°36' E 140°05'2 2.1
2016-Feb-04 00:33N 35°35' E 140°03'6 5.8
2016-Feb-03 23:33N 35°34' E 139°56'0 0.4
2016-Feb-03 22:33N 35°33' E 139°56'6 6.4
2016-Feb-03 21:33N 35°32' E 140°03'5 4.8
2016-Feb-03 20:34N 35°36' E 140°07'0 0.0
2016-Feb-03 19:34N 35°36' E 140°07'0 0.0
2016-Feb-03 18:33N 35°36' E 140°07'0 0.0
2016-Feb-03 17:34N 35°36' E 140°07'0 0.0
2016-Feb-03 16:33N 35°36' E 140°07'0 0.0
2016-Feb-03 15:33N 35°36' E 140°07'0 0.0
2016-Feb-03 14:33N 35°36' E 140°07'0 0.0
2016-Feb-03 13:33N 35°36' E 140°07'0 0.0
2016-Feb-03 12:33N 35°36' E 140°07'0 0.0
2016-Feb-03 11:33N 35°36' E 140°07'0 0.0
2016-Feb-03 10:33N 35°36' E 140°07'0 0.0
2016-Feb-03 09:33N 35°36' E 140°07'0 0.0
2016-Feb-03 08:33N 35°36' E 140°07'0 0.0
2016-Feb-03 07:33N 35°36' E 140°07'0 0.0
2016-Feb-03 06:34N 35°36' E 140°07'8 2.6
2016-Feb-03 03:33N 35°32' E 139°58'2 2.3
2016-Feb-03 02:34N 35°31' E 139°56'1 0.9
2016-Feb-03 01:33N 35°30' E 139°55'0 0.2
2016-Feb-03 00:34N 35°30' E 139°55'1111.0
2016-Feb-02 23:34N 35°36' E 140°07'0 0.2
2016-Feb-02 22:33N 35°36' E 140°07'0 0.4
2016-Feb-02 21:33N 35°35' E 140°07'1 1.4
2016-Feb-02 20:33N 35°36' E 140°05'1 1.4
2016-Feb-02 19:33N 35°36' E 140°07'0 0.0
2016-Feb-02 18:33N 35°36' E 140°07'0 0.0
2016-Feb-02 17:33N 35°36' E 140°07'0 0.0
2016-Feb-02 16:33N 35°36' E 140°07'0 0.0
2016-Feb-02 15:33N 35°36' E 140°07'0 0.0
2016-Feb-02 14:33N 35°36' E 140°07'0 0.0
2016-Feb-02 13:33N 35°36' E 140°07'0 0.0
2016-Feb-02 12:33N 35°36' E 140°07'0 0.0
2016-Feb-02 11:33N 35°36' E 140°07'0 0.0
2016-Feb-02 10:33N 35°36' E 140°07'0 0.0
2016-Feb-02 09:33N 35°36' E 140°07'0 0.0
2016-Feb-02 08:33N 35°36' E 140°07'0 0.0
2016-Feb-02 07:33N 35°36' E 140°07'0 0.0
2016-Feb-02 06:33N 35°36' E 140°07'0 0.0
2016-Feb-02 05:33N 35°36' E 140°07'0 0.0
2016-Feb-02 04:33N 35°36' E 140°07'0 0.0
2016-Feb-02 03:33N 35°36' E 140°07'0 0.0
2016-Feb-02 02:33N 35°36' E 140°07'0 0.0
2016-Feb-02 01:33N 35°36' E 140°07'0 0.0
2016-Feb-02 00:33N 35°36' E 140°07'0 0.0
2016-Feb-01 23:34N 35°36' E 140°07'1 1.2
2016-Feb-01 22:33N 35°36' E 140°05'6 6.2
2016-Feb-01 21:33N 35°33' E 139°59'2 2.3
2016-Feb-01 20:33N 35°34' E 140°01'5 4.9
2016-Feb-01 19:33N 35°36' E 140°07'0 0.0
2016-Feb-01 18:33N 35°36' E 140°07'0 0.0
2016-Feb-01 17:33N 35°36' E 140°07'0 0.0
2016-Feb-01 16:33N 35°36' E 140°07'0 0.0
2016-Feb-01 15:33N 35°36' E 140°07'0 0.0
2016-Feb-01 14:33N 35°36' E 140°07'0 0.0
2016-Feb-01 13:33N 35°36' E 140°07'0 0.0
2016-Feb-01 12:33N 35°36' E 140°07'0 0.0
2016-Feb-01 11:33N 35°36' E 140°07'0 0.0
2016-Feb-01 10:33N 35°36' E 140°07'0 0.0
2016-Feb-01 09:33N 35°36' E 140°07'0 0.0
2016-Feb-01 08:33N 35°36' E 140°07'4 3.6
2016-Feb-01 07:33N 35°34' E 140°03'3 2.7
2016-Feb-01 06:33N 35°32' E 140°05'4 3.6
2016-Feb-01 05:33N 35°36' E 140°07'0 0.0
2016-Feb-01 04:33N 35°36' E 140°07'0 0.0
2016-Feb-01 03:33N 35°36' E 140°07'0 0.0
2016-Feb-01 02:33N 35°36' E 140°07'0 0.0
2016-Feb-01 01:33N 35°36' E 140°07'0 0.0
2016-Feb-01 00:33N 35°36' E 140°07'1010.1
2016-Jan-31 23:33N 35°29' E 139°58'1 1.0
2016-Jan-31 22:33N 35°28' E 139°58'4 4.3
2016-Jan-31 21:33N 35°32' E 139°58'8 7.9
2016-Jan-31 20:33N 35°36' E 140°07'0 0.0
2016-Jan-31 19:34N 35°36' E 140°07'0 0.0
2016-Jan-31 18:33N 35°36' E 140°07'0 0.0
2016-Jan-31 17:33N 35°36' E 140°07'0 0.0
2016-Jan-31 16:33N 35°36' E 140°07'0 0.0
2016-Jan-31 15:33N 35°36' E 140°07'0 0.0
2016-Jan-31 14:34N 35°36' E 140°07'0 0.0
2016-Jan-31 13:33N 35°36' E 140°07'0 0.0
2016-Jan-31 12:33N 35°36' E 140°07'0 0.0
2016-Jan-31 11:33N 35°36' E 140°07'0 0.0
2016-Jan-31 10:33N 35°36' E 140°07'0 0.0
2016-Jan-31 09:33N 35°36' E 140°07'0 0.0
2016-Jan-31 08:34N 35°36' E 140°07'0 0.0
2016-Jan-31 07:34N 35°36' E 140°07'0 0.0
2016-Jan-31 06:33N 35°36' E 140°07'0 0.0
2016-Jan-31 05:33N 35°36' E 140°07'0 0.0
2016-Jan-31 04:33N 35°36' E 140°07'2 1.7
2016-Jan-31 03:33N 35°36' E 140°05'0 0.1
2016-Jan-31 02:33N 35°36' E 140°05'2 1.9
2016-Jan-31 01:33N 35°35' E 140°03'0 0.0
2016-Jan-31 00:33N 35°35' E 140°03'0 0.0
2016-Jan-30 23:33N 35°35' E 140°03'2 2.4
2016-Jan-30 22:33N 35°36' E 140°06'3 2.6
2016-Jan-30 21:33N 35°35' E 140°03'0 0.0
2016-Jan-30 20:33N 35°35' E 140°03'4 3.5
2016-Jan-30 19:33N 35°36' E 140°07'0 0.0
2016-Jan-30 18:33N 35°36' E 140°07'0 0.0
2016-Jan-30 17:33N 35°36' E 140°07'0 0.0
2016-Jan-30 16:33N 35°36' E 140°07'0 0.0
2016-Jan-30 15:33N 35°36' E 140°07'0 0.0
2016-Jan-30 14:33N 35°36' E 140°07'0 0.0
2016-Jan-30 13:33N 35°36' E 140°07'0 0.0
2016-Jan-30 12:33N 35°36' E 140°07'0 0.0
2016-Jan-30 11:33N 35°36' E 140°07'0 0.0
2016-Jan-30 10:33N 35°36' E 140°07'0 0.0
2016-Jan-30 09:33N 35°36' E 140°07'0 0.0
2016-Jan-30 08:33N 35°36' E 140°07'0 0.0
2016-Jan-30 07:33N 35°36' E 140°07'0 0.0
2016-Jan-30 06:33N 35°36' E 140°07'1010.3
2016-Jan-30 05:33N 35°29' E 139°58'0 0.4
2016-Jan-30 04:33N 35°28' E 139°58'10 9.8
2016-Jan-30 03:33N 35°35' E 140°06'1 0.6
2016-Jan-30 02:33N 35°36' E 140°07'0 0.0
2016-Jan-30 01:33N 35°36' E 140°07'0 0.0
2016-Jan-30 00:33N 35°36' E 140°07'0 0.0
2016-Jan-29 23:33N 35°36' E 140°07'0 0.0
2016-Jan-29 22:33N 35°36' E 140°07'0 0.0
2016-Jan-29 21:33N 35°36' E 140°07'0 0.0
2016-Jan-29 20:33N 35°36' E 140°07'0 0.0
2016-Jan-29 19:33N 35°36' E 140°07'0 0.0
2016-Jan-29 18:33N 35°36' E 140°07'0 0.0
2016-Jan-29 17:33N 35°36' E 140°07'0 0.0
2016-Jan-29 16:33N 35°36' E 140°07'0 0.0
2016-Jan-29 15:33N 35°36' E 140°07'0 0.0
2016-Jan-29 14:33N 35°36' E 140°07'0 0.0
2016-Jan-29 13:33N 35°36' E 140°07'0 0.0
2016-Jan-29 12:33N 35°36' E 140°07'0 0.0
2016-Jan-29 11:33N 35°36' E 140°07'0 0.0
2016-Jan-29 10:33N 35°36' E 140°07'0 0.0
2016-Jan-29 09:33N 35°36' E 140°07'0 0.0
2016-Jan-29 08:33N 35°36' E 140°07'0 0.0
2016-Jan-29 07:33N 35°36' E 140°07'0 0.0
2016-Jan-29 06:33N 35°36' E 140°07'0 0.0
2016-Jan-29 05:33N 35°36' E 140°07'4 3.7
2016-Jan-29 04:33N 35°34' E 140°03'7 6.8
2016-Jan-29 03:33N 35°28' E 139°58'1 0.9
2016-Jan-29 02:33N 35°29' E 139°57'0 0.0
2016-Jan-29 01:33N 35°29' E 139°57'0 0.0
2016-Jan-29 00:33N 35°29' E 139°57'1 1.1
2016-Jan-28 23:33N 35°28' E 139°58'8 8.2
2016-Jan-28 22:33N 35°35' E 140°04'3 2.8
2016-Jan-28 21:33N 35°36' E 140°07'0 0.0
2016-Jan-28 20:33N 35°36' E 140°07'0 0.0
2016-Jan-28 19:33N 35°36' E 140°07'0 0.0
2016-Jan-28 18:33N 35°36' E 140°07'0 0.0
2016-Jan-28 17:33N 35°36' E 140°07'0 0.0
2016-Jan-28 16:33N 35°36' E 140°07'0 0.0
2016-Jan-28 15:33N 35°36' E 140°07'0 0.0
2016-Jan-28 14:33N 35°36' E 140°07'0 0.0
2016-Jan-28 13:33N 35°36' E 140°07'0 0.0
2016-Jan-28 12:33N 35°36' E 140°07'0 0.0
2016-Jan-28 11:33N 35°36' E 140°07'0 0.0
2016-Jan-28 10:33N 35°36' E 140°07'0 0.0
2016-Jan-28 09:33N 35°36' E 140°07'0 0.0
2016-Jan-28 08:33N 35°36' E 140°07'0 0.0
2016-Jan-28 07:33N 35°36' E 140°07'0 0.0
2016-Jan-28 06:33N 35°36' E 140°07'0 0.0
2016-Jan-28 05:33N 35°36' E 140°07'0 0.0
2016-Jan-28 04:33N 35°36' E 140°07'0 0.0
2016-Jan-28 03:33N 35°36' E 140°07'0 0.0
2016-Jan-28 02:33N 35°36' E 140°07'3 3.5
2016-Jan-28 01:34N 35°33' E 140°05'1 1.3
2016-Jan-28 00:33N 35°32' E 140°03'1 1.2
2016-Jan-27 23:34N 35°32' E 140°02'5 4.7
2016-Jan-27 22:33N 35°36' E 140°05'1 1.4
2016-Jan-27 21:33N 35°35' E 140°04'0 0.0
2016-Jan-27 20:33N 35°35' E 140°04'2 2.3
2016-Jan-27 19:33N 35°36' E 140°07'  

Dump ship's entire track history